Time;durP1;ratioP1;P1;durP2;ratioP2;P2;SDS_P1;SDS_P2;PMS_P1;PMS_P2;Temp;Humidity;BMP_temperature;BMP_pressure;BME280_temperature;BME280_humidity;BME280_pressure;Samples;Min_cycle;Max_cycle;Signal;HPM_P1;HPM_P2
2023/06/17 00:02:15;;;;;;;2.38;2.28;;;19.20;99.90;;;19.56;62.21;101534.50;4937043;29;20084;-65
2023/06/17 00:04:44;;;;;;;2.30;2.20;;;19.20;99.90;;;19.67;62.96;101561.88;4937975;29;20139;-65
2023/06/17 00:07:14;;;;;;;2.45;2.35;;;19.10;99.90;;;19.56;65.85;101555.97;4938274;29;20052;-64
2023/06/17 00:09:44;;;;;;;2.43;2.33;;;19.00;99.90;;;19.59;66.36;101555.84;4937969;29;20402;-64
2023/06/17 00:12:12;;;;;;;2.53;2.42;;;19.00;99.90;;;19.57;64.51;101553.22;4938579;29;20311;-64
2023/06/17 00:14:42;;;;;;;2.40;2.30;;;19.00;99.90;;;19.54;62.24;101547.97;4938149;29;20500;-64
2023/06/17 00:17:11;;;;;;;2.38;2.28;;;19.00;99.90;;;19.46;60.55;101541.94;4938163;29;20059;-64
2023/06/17 00:19:40;;;;;;;2.50;2.40;;;18.90;99.90;;;19.46;60.46;101551.78;4937997;29;20043;-64
2023/06/17 00:22:09;;;;;;;2.63;2.53;;;18.90;99.90;;;19.41;62.41;101553.75;4938209;29;20071;-64
2023/06/17 00:24:39;;;;;;;2.20;2.10;;;18.90;99.90;;;19.48;64.57;101547.25;4934696;29;20063;-64
2023/06/17 00:27:07;;;;;;;2.47;2.37;;;18.90;99.90;;;19.27;63.78;101513.00;4937899;29;20127;-64
2023/06/17 00:29:36;;;;;;;2.35;2.25;;;18.90;99.90;;;19.38;62.95;101537.72;4936714;29;20311;-64
2023/06/17 00:32:06;;;;;;;2.45;2.35;;;18.80;99.90;;;19.36;61.56;101536.88;4936775;29;20059;-64
2023/06/17 00:34:34;;;;;;;2.60;2.50;;;18.80;99.90;;;19.33;61.31;101535.19;4937746;29;20134;-64
2023/06/17 00:37:03;;;;;;;2.50;2.40;;;18.70;99.90;;;19.31;61.42;101533.44;4938065;29;20056;-64
2023/06/17 00:39:31;;;;;;;2.30;2.20;;;18.70;99.90;;;19.34;64.34;101538.75;4944986;29;20054;-64
2023/06/17 00:42:02;;;;;;;2.40;2.30;;;18.80;99.90;;;19.24;66.48;101529.19;4938084;29;20095;-64
2023/06/17 00:44:30;;;;;;;2.50;2.40;;;18.70;99.90;;;19.20;68.59;101528.38;4934062;29;20044;-64
2023/06/17 00:46:59;;;;;;;2.40;2.30;;;18.60;99.90;;;19.12;69.41;101530.44;4936334;29;20130;-64
2023/06/17 00:49:36;;;;;;;2.65;2.55;;;18.50;99.90;;;19.04;69.42;101531.56;4935870;29;20052;-64
2023/06/17 00:52:07;;;;;;;2.75;2.65;;;18.50;99.90;;;18.94;69.17;101522.91;4937738;29;20050;-64
2023/06/17 00:54:56;;;;;;;2.50;2.40;;;18.40;99.90;;;18.89;68.37;101523.03;4935758;29;20055;-66
2023/06/17 00:57:27;;;;;;;4.38;4.05;;;18.40;99.90;;;18.90;68.29;101522.13;4936363;29;20496;-64
2023/06/17 00:59:56;;;;;;;2.50;2.40;;;18.30;99.90;;;18.89;68.37;101524.84;4937619;29;20162;-64
2023/06/17 01:02:25;;;;;;;2.50;2.40;;;18.30;99.90;;;18.92;68.42;101527.44;4936373;29;20500;-65
2023/06/17 01:04:55;;;;;;;2.35;2.25;;;18.30;99.90;;;18.93;66.62;101527.38;4924897;29;20071;-66
2023/06/17 01:07:37;;;;;;;2.38;2.28;;;18.30;99.90;;;18.80;65.51;101525.97;4937431;29;20107;-64
2023/06/17 01:10:13;;;;;;;2.50;2.40;;;18.30;99.90;;;18.64;65.90;101534.47;4937241;29;20056;-64
2023/06/17 01:12:44;;;;;;;2.53;2.42;;;18.10;99.90;;;18.76;68.10;101531.44;4933665;29;20054;-64
2023/06/17 01:15:16;;;;;;;2.40;2.30;;;18.20;99.90;;;18.77;69.05;101528.75;4937321;29;20123;-64
2023/06/17 01:17:45;;;;;;;2.20;2.10;;;18.20;99.90;;;18.77;69.33;101535.91;4928226;29;20050;-64
2023/06/17 01:20:16;;;;;;;2.50;2.40;;;18.20;99.90;;;18.77;69.47;101531.44;4937195;29;20047;-64
2023/06/17 01:22:46;;;;;;;2.83;2.72;;;18.20;99.90;;;18.76;69.25;101532.34;4928403;29;20048;-65
2023/06/17 01:25:16;;;;;;;2.55;2.45;;;18.20;99.90;;;18.70;68.41;101532.50;4937238;29;20059;-63
2023/06/17 01:27:46;;;;;;;3.13;3.03;;;18.20;99.90;;;18.74;69.10;101539.53;4924855;29;20052;-64
2023/06/17 01:30:15;;;;;;;2.40;2.30;;;18.20;99.90;;;18.77;70.79;101538.59;4937486;29;20051;-64
2023/06/17 01:32:43;;;;;;;2.30;2.20;;;18.20;99.90;;;18.73;70.70;101537.78;4935620;29;20051;-64
2023/06/17 01:35:15;;;;;;;2.45;2.35;;;18.20;99.90;;;18.72;70.54;101540.50;4936521;29;20048;-66
2023/06/17 01:37:49;;;;;;;2.50;2.40;;;18.10;99.90;;;18.09;71.06;101459.13;4935385;29;20576;-64
2023/06/17 01:40:22;;;;;;;2.88;2.78;;;18.00;99.90;;;18.30;71.16;101523.72;4936693;29;20051;-64
2023/06/17 01:42:53;;;;;;;2.55;2.45;;;17.90;99.90;;;17.85;70.97;101448.09;4933298;29;20528;-64
2023/06/17 01:45:24;;;;;;;2.53;2.42;;;17.80;99.90;;;17.80;71.58;101455.38;4936539;29;20083;-64
2023/06/17 01:47:53;;;;;;;2.70;2.60;;;17.60;99.90;;;17.99;72.31;101499.50;4943544;29;20056;-64
2023/06/17 01:50:21;;;;;;;2.95;2.85;;;17.60;99.90;;;18.20;72.65;101527.53;4936505;29;20059;-64
2023/06/17 01:52:50;;;;;;;2.58;2.47;;;17.50;99.90;;;18.23;73.03;101523.91;4927640;29;20047;-64
2023/06/17 01:55:20;;;;;;;3.35;3.25;;;17.60;99.90;;;18.22;72.56;101523.03;4936196;29;20556;-64
2023/06/17 01:57:49;;;;;;;2.45;2.35;;;17.60;99.90;;;18.21;71.88;101520.41;4931447;29;20063;-66
2023/06/17 02:00:18;;;;;;;6.30;5.90;;;17.60;99.90;;;18.19;72.13;101522.22;4934450;29;20043;-65
2023/06/17 02:02:53;;;;;;;2.55;2.45;;;17.60;99.90;;;18.23;73.36;101514.09;4936249;29;20059;-64
2023/06/17 02:05:24;;;;;;;2.40;2.30;;;17.60;99.90;;;18.15;74.07;101505.38;4936134;29;20135;-64
2023/06/17 02:07:53;;;;;;;2.90;2.80;;;17.60;99.90;;;18.16;74.70;101512.47;4934772;29;20535;-65
2023/06/17 02:10:23;;;;;;;2.72;2.63;;;17.60;99.90;;;18.16;74.54;101514.25;4936104;29;20105;-64
2023/06/17 02:12:51;;;;;;;2.80;2.70;;;17.60;99.90;;;18.07;73.57;101514.50;4932369;29;20100;-66
2023/06/17 02:15:20;;;;;;;2.53;2.42;;;17.50;99.90;;;18.02;72.84;101506.59;4923714;29;20379;-64
2023/06/17 02:17:51;;;;;;;2.47;2.38;;;17.40;99.90;;;18.01;72.38;101512.84;4934641;29;20078;-65
2023/06/17 02:20:20;;;;;;;2.63;2.53;;;17.40;99.90;;;18.08;71.77;101513.59;4934639;29;20099;-65
2023/06/17 02:22:49;;;;;;;2.75;2.65;;;17.50;99.90;;;18.03;72.10;101511.03;4935647;29;20497;-64
2023/06/17 02:25:18;;;;;;;2.70;2.60;;;17.40;99.90;;;18.07;72.16;101506.47;4935914;29;20059;-65
2023/06/17 02:27:48;;;;;;;2.40;2.30;;;17.50;99.90;;;18.03;71.97;101505.66;4935773;29;20044;-64
2023/06/17 02:30:16;;;;;;;2.50;2.40;;;17.50;99.90;;;18.00;72.75;101498.59;4935587;29;20055;-64
2023/06/17 02:32:45;;;;;;;2.40;2.30;;;17.40;99.90;;;18.02;73.37;101498.56;4935651;29;20054;-65
2023/06/17 02:35:14;;;;;;;2.40;2.30;;;17.40;99.90;;;18.04;73.97;101497.59;4915548;29;20075;-64
2023/06/17 02:37:42;;;;;;;2.75;2.65;;;17.40;99.90;;;18.08;73.31;101501.06;4934257;29;20052;-67
2023/06/17 02:40:11;;;;;;;2.80;2.70;;;17.50;99.90;;;18.01;70.37;101496.78;4934214;29;20565;-64
2023/06/17 02:42:40;;;;;;;2.80;2.70;;;17.40;99.90;;;18.00;68.98;101487.00;4934267;29;20075;-65
2023/06/17 02:45:12;;;;;;;2.85;2.75;;;17.50;99.90;;;17.99;68.87;101493.28;4926476;29;20409;-65
2023/06/17 02:47:42;;;;;;;3.15;3.05;;;17.40;99.90;;;17.97;69.03;101489.75;4935208;29;20106;-64
2023/06/17 02:50:11;;;;;;;2.63;2.53;;;17.40;99.90;;;17.92;68.77;101494.34;4935554;29;20048;-64
2023/06/17 02:52:40;;;;;;;2.42;2.33;;;17.40;99.90;;;17.79;69.84;101477.69;4930974;29;20052;-65
2023/06/17 02:55:09;;;;;;;2.65;2.55;;;17.30;99.90;;;17.88;71.47;101495.34;4943771;29;20063;-64
2023/06/17 02:57:38;;;;;;;2.60;2.50;;;17.30;99.90;;;17.14;72.89;101361.53;4934166;29;20137;-64
2023/06/17 03:00:10;;;;;;;2.42;2.33;;;17.30;99.90;;;17.86;74.28;101486.47;4926453;29;20074;-64
2023/06/17 03:02:40;;;;;;;2.60;2.50;;;17.30;99.90;;;17.91;75.70;101484.53;4934215;29;20416;-64
2023/06/17 03:05:09;;;;;;;2.60;2.50;;;17.30;99.90;;;17.88;75.65;101477.50;4926471;29;20055;-64
2023/06/17 03:07:40;;;;;;;2.50;2.40;;;17.30;99.90;;;17.86;76.35;101482.00;4934059;29;20052;-64
2023/06/17 03:10:11;;;;;;;2.20;2.10;;;17.30;99.90;;;18.00;76.07;101477.16;4922743;29;20052;-64
2023/06/17 03:12:45;;;;;;;2.63;2.53;;;17.40;99.90;;;18.00;75.74;101476.31;4930795;29;20071;-66
2023/06/17 03:15:17;;;;;;;2.88;2.78;;;17.50;99.90;;;17.93;75.98;101482.72;4934102;29;20059;-64
2023/06/17 03:17:47;;;;;;;2.70;2.60;;;17.40;99.90;;;17.78;74.89;101478.63;4926387;29;20067;-64
2023/06/17 03:20:16;;;;;;;2.55;2.45;;;17.30;99.90;;;17.67;72.40;101474.44;4933923;29;20070;-66
2023/06/17 03:22:45;;;;;;;2.75;2.65;;;17.10;99.90;;;17.54;72.14;101473.84;4922902;29;20044;-64
2023/06/17 03:25:13;;;;;;;2.50;2.40;;;17.00;99.90;;;17.51;73.85;101470.38;4931444;29;20473;-64
2023/06/17 03:27:41;;;;;;;2.85;2.75;;;16.90;99.90;;;17.59;75.25;101476.41;4933930;29;20055;-64
2023/06/17 03:30:12;;;;;;;2.75;2.65;;;17.00;99.90;;;17.63;73.07;101479.00;4934075;29;20107;-64
2023/06/17 03:32:40;;;;;;;2.40;2.30;;;17.00;99.90;;;17.44;72.09;101476.75;4935364;29;20047;-65
2023/06/17 03:35:10;;;;;;;2.45;2.35;;;16.90;99.90;;;17.30;73.44;101473.50;4933697;29;20082;-63
2023/06/17 03:37:39;;;;;;;2.53;2.42;;;16.70;99.90;;;17.27;74.48;101474.44;4933727;29;20071;-64
2023/06/17 03:40:10;;;;;;;2.53;2.42;;;16.70;99.90;;;17.39;76.03;101470.59;4933429;29;20059;-64
2023/06/17 03:42:39;;;;;;;2.40;2.30;;;16.80;99.90;;;17.37;75.16;101470.66;4922523;29;20151;-66
2023/06/17 03:45:10;;;;;;;2.70;2.60;;;16.80;99.90;;;17.46;72.66;101486.47;4942974;29;20048;-65
2023/06/17 03:47:38;;;;;;;2.53;2.42;;;16.90;99.90;;;17.44;71.80;101484.78;4933638;29;20051;-64
2023/06/17 03:50:10;;;;;;;2.92;2.72;;;16.90;99.90;;;17.42;70.90;101483.94;4925956;29;20091;-64
2023/06/17 03:52:39;;;;;;;2.85;2.75;;;16.90;99.90;;;17.50;70.39;101482.00;4933634;29;20082;-64
2023/06/17 03:55:08;;;;;;;2.58;2.47;;;17.00;99.90;;;17.59;69.87;101487.13;4933534;29;20138;-64
2023/06/17 03:57:37;;;;;;;2.50;2.40;;;17.10;99.90;;;17.65;69.41;101485.16;4933237;29;20076;-64
2023/06/17 04:00:10;;;;;;;2.70;2.60;;;17.20;99.90;;;17.60;70.25;101468.34;4934495;29;20044;-64
2023/06/17 04:02:47;;;;;;;2.65;2.55;;;17.20;99.90;;;17.53;73.47;101472.09;4923321;29;20099;-64
2023/06/17 04:05:33;;;;;;;;;;;17.10;99.90;;;17.53;73.95;101477.44;4925790;29;20437;-65
2023/06/17 04:08:03;;;;;;;2.70;2.60;;;17.10;99.90;;;17.51;74.08;101483.75;4930349;29;19929;-65
2023/06/17 04:10:34;;;;;;;2.88;2.78;;;17.00;99.90;;;17.60;74.05;101478.16;4933331;29;20099;-65
2023/06/17 04:13:03;;;;;;;3.58;3.42;;;17.00;99.90;;;17.77;73.67;101486.66;4934234;29;20103;-65
2023/06/17 04:15:31;;;;;;;2.63;2.53;;;17.20;99.90;;;17.82;73.60;101487.47;4932923;29;20047;-66
2023/06/17 04:18:02;;;;;;;2.88;2.78;;;17.30;99.90;;;17.96;74.02;101499.56;4933115;29;20437;-65
2023/06/17 04:20:34;;;;;;;4.60;4.30;;;17.40;99.90;;;17.93;72.57;101493.41;4930137;29;20486;-66
2023/06/17 04:23:03;;;;;;;2.40;2.30;;;17.40;99.90;;;17.97;72.51;101487.06;4927232;29;20082;-66
2023/06/17 04:25:32;;;;;;;2.60;2.50;;;17.40;99.90;;;18.04;72.50;101486.00;4936523;29;20051;-66
2023/06/17 04:28:02;;;;;;;2.90;2.80;;;17.50;99.90;;;18.11;72.03;101486.72;4929356;29;20158;-65
2023/06/17 04:30:34;;;;;;;2.70;2.60;;;17.60;99.90;;;17.52;70.90;101389.19;4936661;29;20052;-65
2023/06/17 04:33:03;;;;;;;2.67;2.58;;;17.50;99.90;;;18.03;70.94;101489.59;4928916;29;20053;-65
2023/06/17 04:35:34;;;;;;;3.40;3.30;;;17.50;99.90;;;18.12;72.37;101489.34;4936596;29;20058;-66
2023/06/17 04:38:03;;;;;;;2.60;2.50;;;17.60;99.90;;;18.23;73.46;101486.44;4925372;29;20079;-66
2023/06/17 04:40:32;;;;;;;2.95;2.85;;;17.70;99.90;;;18.39;74.16;101491.31;4930099;29;20494;-67
2023/06/17 04:43:02;;;;;;;2.92;2.83;;;17.80;99.90;;;18.55;74.24;101495.41;4936695;29;20147;-66
2023/06/17 04:45:33;;;;;;;2.50;2.40;;;18.00;99.90;;;18.58;73.14;101492.63;4928759;29;20079;-67
2023/06/17 04:48:05;;;;;;;2.57;2.47;;;18.10;99.90;;;18.59;72.43;101490.81;4937255;29;20074;-65
2023/06/17 04:50:36;;;;;;;2.80;2.70;;;18.10;99.90;;;18.76;72.57;101492.13;4928742;29;20481;-66
2023/06/17 04:53:04;;;;;;;2.50;2.40;;;18.20;99.90;;;18.85;72.60;101489.16;4936226;29;20066;-64
2023/06/17 04:55:38;;;;;;;2.67;2.58;;;18.30;99.90;;;18.96;73.14;101488.00;4933094;29;20055;-65
2023/06/17 04:58:09;;;;;;;2.40;2.30;;;18.40;99.90;;;19.06;72.21;101492.16;4936124;29;20051;-65
2023/06/17 05:01:01;;;;;;;2.70;2.60;;;18.50;99.90;;;19.21;71.25;101489.03;4934288;29;20139;-64
2023/06/17 05:03:31;;;;;;;2.90;2.80;;;18.60;99.90;;;19.31;72.19;101493.19;4936059;29;20051;-65
2023/06/17 05:06:01;;;;;;;3.08;2.97;;;18.70;99.90;;;19.40;72.20;101496.50;4928265;29;20142;-65
2023/06/17 05:08:31;;;;;;;4.90;4.45;;;18.80;99.90;;;19.29;73.25;101495.94;4935913;29;20047;-65
2023/06/17 05:11:00;;;;;;;2.50;2.40;;;18.70;99.90;;;19.37;72.70;101491.25;4925042;29;20048;-65
2023/06/17 05:13:29;;;;;;;2.80;2.70;;;18.80;99.90;;;19.39;70.60;101491.19;4935753;29;20044;-65
2023/06/17 05:16:00;;;;;;;2.53;2.42;;;18.80;99.90;;;19.39;69.40;101491.19;4917410;29;20561;-64
2023/06/17 05:18:31;;;;;;;;;;;18.80;99.90;;;19.53;70.02;101489.84;4936167;29;20147;-65
2023/06/17 05:21:03;;;;;;;2.55;2.45;;;19.00;99.90;;;19.59;69.61;101499.50;4927670;29;20448;-66
2023/06/17 05:23:32;;;;;;;2.55;2.45;;;19.10;99.90;;;19.65;68.86;101499.31;4935155;29;20146;-66
2023/06/17 05:26:00;;;;;;;2.53;2.42;;;19.10;99.90;;;19.80;69.13;101496.16;4943847;29;20074;-65
2023/06/17 05:28:29;;;;;;;2.50;2.40;;;19.30;99.90;;;19.84;68.81;101496.94;4932332;29;20052;-65
2023/06/17 05:30:58;;;;;;;2.30;2.20;;;19.30;99.90;;;19.93;69.63;101497.50;4951258;29;20110;-66
2023/06/17 05:33:27;;;;;;;3.15;3.03;;;19.40;99.90;;;19.99;70.63;101493.75;4933249;29;20095;-65
2023/06/17 05:36:00;;;;;;;2.78;2.67;;;19.40;99.90;;;20.02;70.00;101489.13;4935695;29;20052;-65
2023/06/17 05:38:31;;;;;;;2.60;2.50;;;19.50;99.90;;;20.08;70.44;101493.41;4927642;29;20075;-65
2023/06/17 05:40:59;;;;;;;2.97;2.88;;;19.50;99.90;;;20.15;70.53;101492.31;4936592;29;20115;-65
2023/06/17 05:43:30;;;;;;;2.50;2.40;;;19.60;99.90;;;20.08;71.08;101478.19;4927595;29;20054;-65
2023/06/17 05:45:59;;;;;;;2.47;2.38;;;19.70;99.90;;;20.37;70.46;101496.91;4932013;29;20044;-65
2023/06/17 05:48:28;;;;;;;2.97;2.88;;;19.90;99.90;;;20.43;70.89;101498.50;4944185;29;20059;-66
2023/06/17 05:50:56;;;;;;;2.70;2.60;;;19.90;99.90;;;20.29;71.23;101465.84;4932961;29;20059;-66
2023/06/17 05:53:24;;;;;;;3.13;3.03;;;19.90;99.90;;;20.29;70.96;101493.63;4936465;29;20107;-66
2023/06/17 05:55:55;;;;;;;4.45;4.25;;;19.80;99.90;;;20.36;70.92;101497.84;4936381;29;20075;-65
2023/06/17 05:58:24;;;;;;;2.55;2.45;;;19.80;99.90;;;20.56;71.09;101503.41;4935046;29;20040;-65
2023/06/17 06:00:58;;;;;;;2.60;2.50;;;20.00;99.90;;;20.75;70.75;101498.22;4943254;28;20422;-65
2023/06/17 06:03:27;;;;;;;2.92;2.83;;;20.20;99.90;;;20.93;70.21;101507.44;4934563;29;20067;-65
2023/06/17 06:05:55;;;;;;;2.50;2.40;;;20.40;99.90;;;21.08;70.09;101501.56;4936187;29;20082;-65
2023/06/17 06:08:23;;;;;;;2.67;2.58;;;20.60;99.90;;;21.17;69.86;101495.81;4931585;29;20052;-65
2023/06/17 06:10:53;;;;;;;2.42;2.33;;;20.70;99.90;;;21.21;69.69;101497.47;4936149;29;20058;-65
2023/06/17 06:13:23;;;;;;;2.20;2.10;;;20.80;99.90;;;21.41;69.97;101497.56;4942715;29;20076;-65
2023/06/17 06:15:52;;;;;;;2.38;2.28;;;20.90;99.90;;;21.55;69.75;101497.91;4935677;29;20461;-65
2023/06/17 06:18:20;;;;;;;2.60;2.50;;;21.10;99.90;;;21.58;70.11;101498.66;4942860;28;20151;-65
2023/06/17 06:20:49;;;;;;;2.30;2.20;;;21.10;99.90;;;21.74;69.56;101506.13;4934465;29;20492;-66
2023/06/17 06:23:18;;;;;;;2.47;2.38;;;21.30;99.90;;;21.79;69.58;101491.53;4934755;29;20552;-66
2023/06/17 06:25:47;;;;;;;2.60;2.50;;;21.30;99.90;;;21.79;70.33;101491.53;4934066;29;20063;-65
2023/06/17 06:28:18;;;;;;;2.70;2.60;;;21.40;99.90;;;21.81;69.42;101487.00;4934679;29;20090;-65
2023/06/17 06:30:47;;;;;;;2.63;2.53;;;21.30;99.90;;;21.84;67.20;101489.56;4932260;29;20048;-65
2023/06/17 06:33:16;;;;;;;2.77;2.67;;;21.30;99.90;;;21.91;68.06;101490.19;4934476;29;20103;-65
2023/06/17 06:35:44;;;;;;;2.70;2.60;;;21.40;99.90;;;21.90;67.60;101489.31;4934375;29;20059;-65
2023/06/17 06:38:17;;;;;;;5.55;3.42;;;21.40;99.90;;;21.96;66.26;101478.28;4934561;29;20059;-65
2023/06/17 06:40:46;;;;;;;2.42;2.33;;;21.40;99.90;;;21.88;66.11;101491.19;4942727;29;20047;-66
2023/06/17 06:43:16;;;;;;;2.30;2.20;;;21.40;99.90;;;22.14;60.38;101485.56;4934217;29;20158;-66
2023/06/17 06:46:01;;;;;;;2.55;2.45;;;21.60;99.90;;;22.53;60.12;101495.63;4932503;29;20048;-66
2023/06/17 06:48:30;;;;;;;2.47;2.38;;;22.00;99.90;;;22.74;58.03;101483.91;4935439;29;20505;-65
2023/06/17 06:50:58;;;;;;;2.85;2.75;;;22.40;99.90;;;22.83;55.34;101486.19;4935091;29;20501;-65
2023/06/17 06:53:27;;;;;;;2.92;2.83;;;22.50;99.90;;;23.02;54.36;101492.50;4926627;29;20048;-66
2023/06/17 06:55:56;;;;;;;2.65;2.55;;;22.70;99.90;;;21.86;53.79;101401.47;4930997;29;20059;-66
2023/06/17 06:58:27;;;;;;;3.38;3.17;;;22.10;99.90;;;22.07;49.85;101478.69;4943523;29;20052;-65
2023/06/17 07:00:56;;;;;;;8.23;3.67;;;21.70;99.90;;;21.63;50.76;101478.75;4934169;29;20056;-65
2023/06/17 07:03:25;;;;;;;3.03;2.83;;;21.30;99.90;;;21.84;49.56;101489.56;4934440;29;20118;-67
2023/06/17 07:05:54;;;;;;;2.20;2.10;;;21.30;99.90;;;22.25;52.84;101485.13;4935610;29;20058;-65
2023/06/17 07:08:22;;;;;;;2.47;2.38;;;21.60;99.90;;;22.70;50.92;101493.97;4935287;29;20512;-65
2023/06/17 07:10:51;;;;;;;2.60;2.50;;;22.10;99.90;;;22.85;48.18;101495.97;4935237;29;20059;-65
2023/06/17 07:13:19;;;;;;;2.42;2.33;;;22.40;99.90;;;23.13;48.04;101501.00;4933778;29;20079;-65
2023/06/17 07:15:51;;;;;;;2.78;2.67;;;22.70;99.90;;;23.51;49.16;101501.94;4930676;29;20048;-65
2023/06/17 07:18:20;;;;;;;2.40;2.30;;;23.10;99.90;;;23.72;47.25;101499.06;4943275;29;20095;-66
2023/06/17 07:20:48;;;;;;;2.30;2.20;;;23.30;99.90;;;24.00;47.34;101504.00;4933700;29;20048;-65
2023/06/17 07:23:19;;;;;;;4.28;3.97;;;23.60;99.90;;;24.08;46.52;101494.56;4933762;29;20048;-65
2023/06/17 07:25:48;;;;;;;2.15;2.05;;;23.90;99.90;;;24.45;45.43;101500.84;4933536;29;20067;-65
2023/06/17 07:28:17;;;;;;;2.05;1.95;;;24.10;99.90;;;24.61;44.79;101504.47;4941800;29;20051;-66
2023/06/17 07:30:46;;;;;;;2.03;1.92;;;24.30;99.90;;;24.79;44.30;101503.56;4933580;29;20095;-65
2023/06/17 07:33:16;;;;;;;2.80;2.70;;;24.40;99.90;;;24.96;43.28;101504.41;4925573;29;20146;-66
2023/06/17 07:35:45;;;;;;;;;;;24.60;99.90;;;25.20;44.51;101501.31;4935068;29;20036;-66
2023/06/17 07:38:14;;;;;;;1.92;1.85;;;24.90;99.90;;;25.39;43.18;101508.38;4922436;29;19971;-66
2023/06/17 07:40:45;;;;;;;2.22;2.13;;;25.10;99.90;;;25.45;41.94;101496.34;4933514;29;20086;-65
2023/06/17 07:43:14;;;;;;;4.05;3.83;;;25.20;99.90;;;25.17;43.47;101412.97;4934634;29;20054;-65
2023/06/17 07:45:42;;;;;;;3.47;3.28;;;25.50;99.90;;;24.95;42.18;101518.88;4934980;29;20110;-66
2023/06/17 07:48:10;;;;;;;2.35;2.22;;;24.80;99.90;;;24.07;44.86;101500.94;4934447;29;20091;-66
2023/06/17 07:50:41;;;;;;;3.10;2.90;;;23.80;99.90;;;23.82;43.73;101504.91;4934533;29;20075;-65
2023/06/17 07:53:09;;;;;;;2.40;2.30;;;23.40;99.90;;;23.54;44.64;101494.53;4934695;29;20062;-66
2023/06/17 07:55:39;;;;;;;4.63;2.63;;;23.10;99.90;;;23.57;44.20;101499.81;4934366;29;20459;-66
2023/06/17 07:58:07;;;;;;;3.00;2.90;;;22.90;99.90;;;23.95;44.44;101508.75;4934889;29;20072;-65
2023/06/17 08:00:36;;;;;;;2.63;2.53;;;23.20;99.90;;;23.39;45.03;101500.69;4934609;29;20056;-67
2023/06/17 08:03:04;;;;;;;2.25;2.15;;;22.90;99.90;;;23.17;45.10;101498.06;4938240;29;20134;-65
2023/06/17 08:05:33;;;;;;;2.08;1.98;;;22.70;99.90;;;23.86;44.51;101507.38;4938135;29;20075;-65
2023/06/17 08:08:03;;;;;;;2.70;2.60;;;23.20;99.90;;;23.57;44.06;101497.13;4938371;29;20114;-65
2023/06/17 08:10:31;;;;;;;4.05;3.75;;;23.10;99.90;;;23.87;44.59;101500.13;4937949;29;20059;-65
2023/06/17 08:13:00;;;;;;;2.92;2.83;;;23.20;99.90;;;23.70;46.12;101498.28;4938115;29;20441;-64
2023/06/17 08:15:28;;;;;;;2.53;2.42;;;23.20;99.90;;;24.28;44.02;101500.81;4929046;29;20504;-64
2023/06/17 08:17:57;;;;;;;2.00;1.90;;;23.70;99.90;;;24.59;42.11;101509.09;4937667;29;20059;-65
2023/06/17 08:20:25;;;;;;;2.42;2.33;;;24.00;99.90;;;24.06;42.03;101503.75;4937826;29;20122;-64
2023/06/17 08:22:54;;;;;;;2.30;2.20;;;23.60;99.90;;;23.89;42.95;101507.22;4934209;29;20109;-65
2023/06/17 08:25:23;;;;;;;2.75;2.65;;;23.40;99.90;;;23.80;43.38;101506.81;4934566;29;20051;-66
2023/06/17 08:27:52;;;;;;;2.25;2.15;;;23.30;99.90;;;23.78;42.88;101485.25;4936181;29;20052;-64
2023/06/17 08:30:21;;;;;;;2.13;2.03;;;23.20;99.90;;;24.39;42.47;101506.56;4936522;29;20461;-64
2023/06/17 08:32:50;;;;;;;2.15;2.05;;;23.70;99.90;;;24.76;41.46;101509.09;4937611;29;20039;-65
2023/06/17 08:35:18;;;;;;;2.35;2.22;;;24.20;99.90;;;24.64;41.42;101499.78;4938077;29;20490;-64
2023/06/17 08:37:47;;;;;;;2.42;2.33;;;24.20;99.90;;;25.02;42.31;101505.91;4937668;29;20055;-64
2023/06/17 08:40:16;;;;;;;2.33;2.22;;;24.50;99.90;;;25.15;40.69;101500.69;4937678;29;20055;-65
2023/06/17 08:42:47;;;;;;;2.88;2.70;;;24.60;99.90;;;25.12;41.16;101503.56;4937643;29;20521;-65
2023/06/17 08:45:16;;;;;;;1.98;1.88;;;24.70;99.90;;;25.15;41.55;101497.97;4937629;29;20059;-66
2023/06/17 08:47:44;;;;;;;3.95;2.42;;;24.70;99.90;;;24.82;40.03;101501.56;4937577;29;20134;-65
2023/06/17 08:50:14;;;;;;;2.30;2.20;;;24.50;99.90;;;25.10;40.55;101494.66;4937813;29;20051;-64
2023/06/17 08:52:44;;;;;;;1.90;1.80;;;24.60;99.90;;;25.56;40.23;101497.47;4936134;29;20054;-65
2023/06/17 08:55:13;;;;;;;3.15;2.85;;;25.00;99.90;;;25.58;38.81;101486.53;4937198;29;20070;-64
2023/06/17 08:57:44;;;;;;;3.20;3.00;;;25.10;99.90;;;25.04;39.33;101495.88;4937000;29;20047;-64
2023/06/17 09:00:14;;;;;;;2.30;2.20;;;24.80;99.40;;;25.33;39.97;101491.56;4937088;29;20423;-63
2023/06/17 09:02:45;;;;;;;2.00;1.90;;;24.80;99.90;;;25.59;39.71;101478.31;4937338;29;20138;-64
2023/06/17 09:05:14;;;;;;;1.90;1.80;;;25.10;99.90;;;25.98;38.63;101493.28;4934327;29;20043;-64
2023/06/17 09:07:43;;;;;;;1.92;1.83;;;25.50;98.70;;;26.26;38.47;101496.13;4935785;29;20398;-65
2023/06/17 09:10:16;;;;;;;2.00;1.90;;;25.80;97.60;;;26.58;38.99;101489.63;4936809;29;20047;-64
2023/06/17 09:12:46;;;;;;;2.00;1.90;;;26.20;99.50;;;26.69;38.35;101489.88;4936719;29;20051;-64
2023/06/17 09:15:18;;;;;;;2.80;2.70;;;26.40;96.30;;;26.33;39.16;101486.66;4936757;29;20091;-65
2023/06/17 09:17:48;;;;;;;2.20;2.10;;;26.00;99.10;;;26.29;40.16;101485.97;4916800;29;20383;-66
2023/06/17 09:20:17;;;;;;;1.70;1.70;;;25.80;99.90;;;26.63;41.62;101492.97;4936677;29;20067;-67
2023/06/17 09:22:48;;;;;;;2.85;2.70;;;26.20;99.90;;;26.45;39.53;101485.94;4928089;29;20470;-64
2023/06/17 09:25:18;;;;;;;1.85;1.80;;;26.10;99.90;;;25.92;40.79;101487.22;4935269;29;20106;-66
2023/06/17 09:27:50;;;;;;;1.75;1.73;;;25.50;99.90;;;26.33;40.23;101490.25;4936778;29;20051;-66
2023/06/17 09:30:41;;;;;;;1.88;1.80;;;25.70;99.90;;;26.83;39.72;101495.34;4935015;29;20047;-64
2023/06/17 09:33:18;;;;;;;1.73;1.73;;;26.40;99.90;;;27.03;39.93;101485.97;4937083;29;20053;-65
2023/06/17 09:35:47;;;;;;;3.75;3.30;;;26.70;99.90;;;26.77;39.15;101487.59;4933395;29;20446;-66
2023/06/17 09:38:18;;;;;;;3.35;3.05;;;26.50;99.40;;;25.65;38.28;101479.81;4936501;29;20130;-65
2023/06/17 09:40:49;;;;;;;;;;;25.50;94.50;;;25.39;39.74;101481.28;4944255;29;20560;-65
2023/06/17 09:43:20;;;;;;;2.22;2.13;;;25.00;99.90;;;25.60;40.64;101480.09;4937059;29;19926;-65
2023/06/17 09:45:56;;;;;;;2.45;2.30;;;24.90;99.90;;;25.41;41.85;101482.09;4936421;29;20127;-65
2023/06/17 09:48:29;;;;;;;1.83;1.77;;;24.80;99.90;;;25.65;39.41;101467.13;4932938;29;20405;-65
2023/06/17 09:51:00;;;;;;;2.33;2.13;;;25.00;99.90;;;25.68;39.43;101479.66;4936965;29;20430;-65
2023/06/17 09:53:30;;;;;;;2.40;2.30;;;25.10;99.90;;;26.20;39.17;101481.09;4936708;29;20055;-65
2023/06/17 09:56:00;;;;;;;2.20;2.10;;;25.50;99.90;;;26.11;38.48;101478.06;4936737;29;20054;-65
2023/06/17 09:58:31;;;;;;;2.08;1.98;;;25.50;98.80;;;26.55;38.33;101481.69;4936541;29;20055;-65
2023/06/17 10:01:06;;;;;;;2.22;2.13;;;26.00;98.10;;;26.42;37.61;101467.13;4932224;29;20493;-66
2023/06/17 10:03:37;;;;;;;2.35;2.25;;;26.00;95.00;;;26.90;37.69;101477.72;4936284;29;20051;-65
2023/06/17 10:06:10;;;;;;;1.90;1.85;;;26.40;95.10;;;27.03;37.21;101483.25;4936388;29;20074;-64
2023/06/17 10:08:43;;;;;;;2.58;2.47;;;26.50;92.80;;;27.12;36.71;101477.25;4936234;29;20048;-64
2023/06/17 10:11:14;;;;;;;1.60;1.60;;;26.70;91.20;;;27.30;36.58;101471.50;4932581;29;20055;-65
2023/06/17 10:13:51;;;;;;;1.95;1.85;;;26.90;90.70;;;27.54;36.50;101478.13;4932898;29;20071;-65
2023/06/17 10:16:22;;;;;;;3.33;2.78;;;27.10;90.20;;;26.99;37.29;101463.56;4936233;29;20393;-65
2023/06/17 10:18:52;;;;;;;3.47;3.17;;;26.80;91.20;;;26.68;37.57;101472.72;4935980;29;20059;-65
2023/06/17 10:21:22;;;;;;;;;;;26.40;92.60;;;26.00;38.35;101467.78;4935741;29;20058;-66
2023/06/17 10:23:52;;;;;;;3.95;2.78;;;25.70;94.70;;;26.16;38.50;101467.81;4932264;29;19931;-67
2023/06/17 10:26:21;;;;;;;1.63;1.63;;;25.60;96.50;;;26.50;38.66;101459.41;4935686;29;20090;-66